sensor_id;sensor_type;location;lat;lon;timestamp;P1;durP1;ratioP1;P2;durP2;ratioP2
45206;SDS011;30950;53.086;21.576;2023-03-01T00:01:04;49.60;;;25.85;;
45206;SDS011;30950;53.086;21.576;2023-03-01T00:03:33;50.63;;;25.95;;
45206;SDS011;30950;53.086;21.576;2023-03-01T00:06:01;52.55;;;25.85;;
45206;SDS011;30950;53.086;21.576;2023-03-01T00:08:28;53.60;;;26.38;;
45206;SDS011;30950;53.086;21.576;2023-03-01T00:11:21;51.47;;;27.05;;
45206;SDS011;30950;53.086;21.576;2023-03-01T00:13:53;51.75;;;26.05;;
45206;SDS011;30950;53.086;21.576;2023-03-01T00:16:23;53.55;;;25.95;;
45206;SDS011;30950;53.086;21.576;2023-03-01T00:18:53;49.45;;;25.30;;
45206;SDS011;30950;53.086;21.576;2023-03-01T00:21:21;46.13;;;24.05;;
45206;SDS011;30950;53.086;21.576;2023-03-01T00:23:50;49.25;;;25.50;;
45206;SDS011;30950;53.086;21.576;2023-03-01T00:26:18;45.40;;;22.15;;
45206;SDS011;30950;53.086;21.576;2023-03-01T00:28:46;51.40;;;25.67;;
45206;SDS011;30950;53.086;21.576;2023-03-01T00:31:15;55.92;;;26.33;;
45206;SDS011;30950;53.086;21.576;2023-03-01T00:33:44;57.85;;;26.60;;
45206;SDS011;30950;53.086;21.576;2023-03-01T00:36:13;49.88;;;24.73;;
45206;SDS011;30950;53.086;21.576;2023-03-01T00:38:42;56.75;;;26.75;;
45206;SDS011;30950;53.086;21.576;2023-03-01T00:41:11;54.28;;;26.08;;
45206;SDS011;30950;53.086;21.576;2023-03-01T00:43:41;51.70;;;25.08;;
45206;SDS011;30950;53.086;21.576;2023-03-01T00:46:09;50.58;;;24.60;;
45206;SDS011;30950;53.086;21.576;2023-03-01T00:48:39;51.30;;;24.00;;
45206;SDS011;30950;53.086;21.576;2023-03-01T00:51:07;45.53;;;22.83;;
45206;SDS011;30950;53.086;21.576;2023-03-01T00:53:36;47.33;;;21.33;;
45206;SDS011;30950;53.086;21.576;2023-03-01T00:56:04;45.38;;;22.00;;
45206;SDS011;30950;53.086;21.576;2023-03-01T00:58:34;47.47;;;21.83;;
45206;SDS011;30950;53.086;21.576;2023-03-01T01:01:35;41.63;;;21.00;;
45206;SDS011;30950;53.086;21.576;2023-03-01T01:03:58;43.08;;;20.40;;
45206;SDS011;30950;53.086;21.576;2023-03-01T01:06:28;42.95;;;19.80;;
45206;SDS011;30950;53.086;21.576;2023-03-01T01:09:01;44.13;;;21.98;;
45206;SDS011;30950;53.086;21.576;2023-03-01T01:11:31;47.28;;;22.00;;
45206;SDS011;30950;53.086;21.576;2023-03-01T01:13:59;46.03;;;21.75;;
45206;SDS011;30950;53.086;21.576;2023-03-01T01:16:28;45.55;;;21.88;;
45206;SDS011;30950;53.086;21.576;2023-03-01T01:18:56;42.42;;;21.05;;
45206;SDS011;30950;53.086;21.576;2023-03-01T01:21:24;35.72;;;19.85;;
45206;SDS011;30950;53.086;21.576;2023-03-01T01:23:52;38.63;;;18.95;;
45206;SDS011;30950;53.086;21.576;2023-03-01T01:26:21;37.25;;;17.90;;
45206;SDS011;30950;53.086;21.576;2023-03-01T01:28:53;43.10;;;21.13;;
45206;SDS011;30950;53.086;21.576;2023-03-01T01:31:21;36.10;;;17.58;;
45206;SDS011;30950;53.086;21.576;2023-03-01T01:33:51;34.05;;;17.80;;
45206;SDS011;30950;53.086;21.576;2023-03-01T01:36:19;39.78;;;18.13;;
45206;SDS011;30950;53.086;21.576;2023-03-01T01:38:47;37.78;;;19.65;;
45206;SDS011;30950;53.086;21.576;2023-03-01T01:41:15;39.35;;;18.58;;
45206;SDS011;30950;53.086;21.576;2023-03-01T01:43:44;42.67;;;18.13;;
45206;SDS011;30950;53.086;21.576;2023-03-01T01:48:51;33.38;;;17.42;;
45206;SDS011;30950;53.086;21.576;2023-03-01T01:51:23;36.53;;;16.10;;
45206;SDS011;30950;53.086;21.576;2023-03-01T01:53:55;32.05;;;16.30;;
45206;SDS011;30950;53.086;21.576;2023-03-01T01:56:27;27.02;;;14.25;;
45206;SDS011;30950;53.086;21.576;2023-03-01T01:58:56;34.42;;;15.98;;
45206;SDS011;30950;53.086;21.576;2023-03-01T02:01:24;35.97;;;17.85;;
45206;SDS011;30950;53.086;21.576;2023-03-01T02:03:52;31.15;;;17.75;;
45206;SDS011;30950;53.086;21.576;2023-03-01T02:06:26;33.80;;;17.60;;
45206;SDS011;30950;53.086;21.576;2023-03-01T02:09:00;34.92;;;16.45;;
45206;SDS011;30950;53.086;21.576;2023-03-01T02:11:31;31.67;;;16.50;;
45206;SDS011;30950;53.086;21.576;2023-03-01T02:13:59;27.35;;;15.55;;
45206;SDS011;30950;53.086;21.576;2023-03-01T02:16:26;27.25;;;14.63;;
45206;SDS011;30950;53.086;21.576;2023-03-01T02:18:55;37.70;;;17.15;;
45206;SDS011;30950;53.086;21.576;2023-03-01T02:21:26;28.42;;;17.20;;
45206;SDS011;30950;53.086;21.576;2023-03-01T02:23:57;31.90;;;17.65;;
45206;SDS011;30950;53.086;21.576;2023-03-01T02:26:33;30.02;;;14.65;;
45206;SDS011;30950;53.086;21.576;2023-03-01T02:29:11;28.45;;;15.10;;
45206;SDS011;30950;53.086;21.576;2023-03-01T02:31:39;32.97;;;16.92;;
45206;SDS011;30950;53.086;21.576;2023-03-01T02:34:15;30.60;;;16.10;;
45206;SDS011;30950;53.086;21.576;2023-03-01T02:39:36;34.40;;;14.65;;
45206;SDS011;30950;53.086;21.576;2023-03-01T02:42:12;26.70;;;14.30;;
45206;SDS011;30950;53.086;21.576;2023-03-01T02:44:43;29.98;;;15.50;;
45206;SDS011;30950;53.086;21.576;2023-03-01T02:47:11;29.10;;;16.92;;
45206;SDS011;30950;53.086;21.576;2023-03-01T02:49:38;30.15;;;14.60;;
45206;SDS011;30950;53.086;21.576;2023-03-01T02:54:50;30.23;;;15.27;;
45206;SDS011;30950;53.086;21.576;2023-03-01T02:57:25;33.20;;;15.23;;
45206;SDS011;30950;53.086;21.576;2023-03-01T02:59:55;31.45;;;14.38;;
45206;SDS011;30950;53.086;21.576;2023-03-01T03:02:27;31.75;;;15.45;;
45206;SDS011;30950;53.086;21.576;2023-03-01T03:05:19;25.38;;;13.80;;
45206;SDS011;30950;53.086;21.576;2023-03-01T03:07:51;29.75;;;13.05;;
45206;SDS011;30950;53.086;21.576;2023-03-01T03:10:23;28.77;;;13.93;;
45206;SDS011;30950;53.086;21.576;2023-03-01T03:12:54;31.42;;;15.70;;
45206;SDS011;30950;53.086;21.576;2023-03-01T03:15:24;31.40;;;16.02;;
45206;SDS011;30950;53.086;21.576;2023-03-01T03:17:52;29.15;;;13.57;;
45206;SDS011;30950;53.086;21.576;2023-03-01T03:20:21;27.45;;;14.15;;
45206;SDS011;30950;53.086;21.576;2023-03-01T03:22:51;27.85;;;15.48;;
45206;SDS011;30950;53.086;21.576;2023-03-01T03:25:20;30.08;;;13.93;;
45206;SDS011;30950;53.086;21.576;2023-03-01T03:27:50;26.75;;;13.60;;
45206;SDS011;30950;53.086;21.576;2023-03-01T03:30:27;33.28;;;16.45;;
45206;SDS011;30950;53.086;21.576;2023-03-01T03:32:57;31.98;;;15.30;;
45206;SDS011;30950;53.086;21.576;2023-03-01T03:35:26;30.40;;;16.00;;
45206;SDS011;30950;53.086;21.576;2023-03-01T03:37:59;28.73;;;14.65;;
45206;SDS011;30950;53.086;21.576;2023-03-01T03:40:40;34.67;;;18.17;;
45206;SDS011;30950;53.086;21.576;2023-03-01T03:43:29;29.23;;;17.00;;
45206;SDS011;30950;53.086;21.576;2023-03-01T03:45:59;31.00;;;14.63;;
45206;SDS011;30950;53.086;21.576;2023-03-01T03:48:26;30.23;;;15.32;;
45206;SDS011;30950;53.086;21.576;2023-03-01T03:50:55;28.77;;;13.63;;
45206;SDS011;30950;53.086;21.576;2023-03-01T03:53:23;27.45;;;14.40;;
45206;SDS011;30950;53.086;21.576;2023-03-01T03:55:52;28.08;;;14.93;;
45206;SDS011;30950;53.086;21.576;2023-03-01T03:58:20;28.15;;;14.73;;
45206;SDS011;30950;53.086;21.576;2023-03-01T04:00:54;31.73;;;14.98;;
45206;SDS011;30950;53.086;21.576;2023-03-01T04:03:23;28.35;;;14.85;;
45206;SDS011;30950;53.086;21.576;2023-03-01T04:05:52;25.55;;;12.82;;
45206;SDS011;30950;53.086;21.576;2023-03-01T04:08:20;21.45;;;11.80;;
45206;SDS011;30950;53.086;21.576;2023-03-01T04:10:50;25.88;;;14.15;;
45206;SDS011;30950;53.086;21.576;2023-03-01T04:13:20;29.60;;;14.05;;
45206;SDS011;30950;53.086;21.576;2023-03-01T04:15:49;27.25;;;13.90;;
45206;SDS011;30950;53.086;21.576;2023-03-01T04:18:18;28.75;;;14.05;;
45206;SDS011;30950;53.086;21.576;2023-03-01T04:20:48;27.73;;;14.48;;
45206;SDS011;30950;53.086;21.576;2023-03-01T04:23:19;25.27;;;13.30;;
45206;SDS011;30950;53.086;21.576;2023-03-01T04:30:57;26.70;;;13.38;;
45206;SDS011;30950;53.086;21.576;2023-03-01T04:33:25;28.13;;;14.02;;
45206;SDS011;30950;53.086;21.576;2023-03-01T04:35:52;27.15;;;13.57;;
45206;SDS011;30950;53.086;21.576;2023-03-01T04:38:20;25.88;;;12.25;;
45206;SDS011;30950;53.086;21.576;2023-03-01T04:40:48;23.17;;;12.88;;
45206;SDS011;30950;53.086;21.576;2023-03-01T04:43:15;29.20;;;14.52;;
45206;SDS011;30950;53.086;21.576;2023-03-01T04:45:44;24.05;;;13.75;;
45206;SDS011;30950;53.086;21.576;2023-03-01T04:48:11;24.60;;;12.88;;
45206;SDS011;30950;53.086;21.576;2023-03-01T04:50:39;26.67;;;14.25;;
45206;SDS011;30950;53.086;21.576;2023-03-01T04:53:06;29.23;;;14.27;;
45206;SDS011;30950;53.086;21.576;2023-03-01T04:55:33;25.88;;;13.85;;
45206;SDS011;30950;53.086;21.576;2023-03-01T04:58:00;27.20;;;13.65;;
45206;SDS011;30950;53.086;21.576;2023-03-01T05:00:28;25.58;;;13.80;;
45206;SDS011;30950;53.086;21.576;2023-03-01T05:02:56;21.13;;;13.02;;
45206;SDS011;30950;53.086;21.576;2023-03-01T05:05:27;27.80;;;14.02;;
45206;SDS011;30950;53.086;21.576;2023-03-01T05:08:00;24.05;;;12.05;;
45206;SDS011;30950;53.086;21.576;2023-03-01T05:10:30;25.63;;;13.65;;
45206;SDS011;30950;53.086;21.576;2023-03-01T05:12:59;25.38;;;13.18;;
45206;SDS011;30950;53.086;21.576;2023-03-01T05:15:26;25.05;;;12.65;;
45206;SDS011;30950;53.086;21.576;2023-03-01T05:17:57;22.75;;;12.98;;
45206;SDS011;30950;53.086;21.576;2023-03-01T05:20:26;24.98;;;11.95;;
45206;SDS011;30950;53.086;21.576;2023-03-01T05:22:57;22.73;;;11.68;;
45206;SDS011;30950;53.086;21.576;2023-03-01T05:25:26;25.67;;;13.13;;
45206;SDS011;30950;53.086;21.576;2023-03-01T05:27:53;19.30;;;11.73;;
45206;SDS011;30950;53.086;21.576;2023-03-01T05:30:21;22.48;;;12.40;;
45206;SDS011;30950;53.086;21.576;2023-03-01T05:32:49;24.52;;;13.13;;
45206;SDS011;30950;53.086;21.576;2023-03-01T05:35:22;31.55;;;16.65;;
45206;SDS011;30950;53.086;21.576;2023-03-01T05:37:50;26.38;;;13.98;;
45206;SDS011;30950;53.086;21.576;2023-03-01T05:40:20;34.28;;;19.00;;
45206;SDS011;30950;53.086;21.576;2023-03-01T05:42:52;25.02;;;14.82;;
45206;SDS011;30950;53.086;21.576;2023-03-01T05:45:21;35.00;;;17.05;;
45206;SDS011;30950;53.086;21.576;2023-03-01T05:47:50;27.45;;;13.38;;
45206;SDS011;30950;53.086;21.576;2023-03-01T05:50:22;23.88;;;12.57;;
45206;SDS011;30950;53.086;21.576;2023-03-01T05:55:29;28.73;;;13.55;;
45206;SDS011;30950;53.086;21.576;2023-03-01T05:57:58;27.77;;;13.90;;
45206;SDS011;30950;53.086;21.576;2023-03-01T06:00:27;22.95;;;12.80;;
45206;SDS011;30950;53.086;21.576;2023-03-01T06:02:56;75.40;;;41.10;;
45206;SDS011;30950;53.086;21.576;2023-03-01T06:05:25;26.60;;;15.23;;
45206;SDS011;30950;53.086;21.576;2023-03-01T06:07:53;70.03;;;39.72;;
45206;SDS011;30950;53.086;21.576;2023-03-01T06:10:21;31.73;;;16.95;;
45206;SDS011;30950;53.086;21.576;2023-03-01T06:12:48;33.33;;;18.83;;
45206;SDS011;30950;53.086;21.576;2023-03-01T06:15:16;27.20;;;14.88;;
45206;SDS011;30950;53.086;21.576;2023-03-01T06:17:44;31.67;;;15.70;;
45206;SDS011;30950;53.086;21.576;2023-03-01T06:20:13;28.05;;;16.80;;
45206;SDS011;30950;53.086;21.576;2023-03-01T06:22:45;45.15;;;26.75;;
45206;SDS011;30950;53.086;21.576;2023-03-01T06:25:14;42.47;;;25.80;;
45206;SDS011;30950;53.086;21.576;2023-03-01T06:27:43;31.60;;;17.05;;
45206;SDS011;30950;53.086;21.576;2023-03-01T06:30:13;30.45;;;15.15;;
45206;SDS011;30950;53.086;21.576;2023-03-01T06:32:42;30.85;;;14.93;;
45206;SDS011;30950;53.086;21.576;2023-03-01T06:35:11;24.73;;;13.65;;
45206;SDS011;30950;53.086;21.576;2023-03-01T06:37:40;47.33;;;26.83;;
45206;SDS011;30950;53.086;21.576;2023-03-01T06:40:08;28.48;;;15.27;;
45206;SDS011;30950;53.086;21.576;2023-03-01T06:42:38;27.17;;;14.70;;
45206;SDS011;30950;53.086;21.576;2023-03-01T06:45:08;37.00;;;15.20;;
45206;SDS011;30950;53.086;21.576;2023-03-01T06:47:35;29.40;;;15.60;;
45206;SDS011;30950;53.086;21.576;2023-03-01T06:50:03;30.77;;;16.27;;
45206;SDS011;30950;53.086;21.576;2023-03-01T06:52:31;28.77;;;15.48;;
45206;SDS011;30950;53.086;21.576;2023-03-01T06:54:58;32.53;;;15.77;;
45206;SDS011;30950;53.086;21.576;2023-03-01T06:57:26;33.17;;;15.07;;
45206;SDS011;30950;53.086;21.576;2023-03-01T06:59:54;29.45;;;15.40;;
45206;SDS011;30950;53.086;21.576;2023-03-01T07:02:21;27.92;;;15.25;;
45206;SDS011;30950;53.086;21.576;2023-03-01T07:04:49;29.42;;;16.17;;
45206;SDS011;30950;53.086;21.576;2023-03-01T07:07:17;31.40;;;17.10;;
45206;SDS011;30950;53.086;21.576;2023-03-01T07:09:46;34.30;;;17.00;;
45206;SDS011;30950;53.086;21.576;2023-03-01T07:12:14;33.60;;;18.80;;
45206;SDS011;30950;53.086;21.576;2023-03-01T07:14:43;30.77;;;15.93;;
45206;SDS011;30950;53.086;21.576;2023-03-01T07:17:10;29.17;;;14.65;;
45206;SDS011;30950;53.086;21.576;2023-03-01T07:19:38;26.17;;;12.77;;
45206;SDS011;30950;53.086;21.576;2023-03-01T07:22:05;26.83;;;13.48;;
45206;SDS011;30950;53.086;21.576;2023-03-01T07:24:34;26.58;;;13.50;;
45206;SDS011;30950;53.086;21.576;2023-03-01T07:27:02;26.35;;;13.48;;
45206;SDS011;30950;53.086;21.576;2023-03-01T07:29:29;25.55;;;13.45;;
45206;SDS011;30950;53.086;21.576;2023-03-01T07:31:57;32.88;;;15.20;;
45206;SDS011;30950;53.086;21.576;2023-03-01T07:34:25;28.20;;;14.95;;
45206;SDS011;30950;53.086;21.576;2023-03-01T07:36:52;27.13;;;14.30;;
45206;SDS011;30950;53.086;21.576;2023-03-01T07:39:19;28.60;;;16.30;;
45206;SDS011;30950;53.086;21.576;2023-03-01T07:41:49;33.90;;;16.95;;
45206;SDS011;30950;53.086;21.576;2023-03-01T07:44:21;31.08;;;16.15;;
45206;SDS011;30950;53.086;21.576;2023-03-01T07:46:48;31.33;;;17.02;;
45206;SDS011;30950;53.086;21.576;2023-03-01T07:49:15;31.13;;;17.48;;
45206;SDS011;30950;53.086;21.576;2023-03-01T07:51:43;33.00;;;17.67;;
45206;SDS011;30950;53.086;21.576;2023-03-01T07:54:10;32.00;;;16.23;;
45206;SDS011;30950;53.086;21.576;2023-03-01T07:56:38;34.53;;;19.08;;
45206;SDS011;30950;53.086;21.576;2023-03-01T07:59:05;35.33;;;16.70;;
45206;SDS011;30950;53.086;21.576;2023-03-01T08:01:32;33.33;;;16.58;;
45206;SDS011;30950;53.086;21.576;2023-03-01T08:04:00;31.30;;;18.13;;
45206;SDS011;30950;53.086;21.576;2023-03-01T08:06:28;29.77;;;16.75;;
45206;SDS011;30950;53.086;21.576;2023-03-01T08:08:56;36.47;;;17.33;;
45206;SDS011;30950;53.086;21.576;2023-03-01T08:11:23;35.60;;;17.95;;
45206;SDS011;30950;53.086;21.576;2023-03-01T08:13:50;29.02;;;16.85;;
45206;SDS011;30950;53.086;21.576;2023-03-01T08:16:19;35.60;;;16.05;;
45206;SDS011;30950;53.086;21.576;2023-03-01T08:18:47;30.67;;;17.50;;
45206;SDS011;30950;53.086;21.576;2023-03-01T08:21:15;27.55;;;16.42;;
45206;SDS011;30950;53.086;21.576;2023-03-01T08:23:44;29.73;;;16.30;;
45206;SDS011;30950;53.086;21.576;2023-03-01T08:26:13;33.78;;;17.75;;
45206;SDS011;30950;53.086;21.576;2023-03-01T08:28:44;33.05;;;16.17;;
45206;SDS011;30950;53.086;21.576;2023-03-01T08:31:16;33.58;;;16.65;;
45206;SDS011;30950;53.086;21.576;2023-03-01T08:33:59;35.50;;;16.13;;
45206;SDS011;30950;53.086;21.576;2023-03-01T08:36:28;28.05;;;16.25;;
45206;SDS011;30950;53.086;21.576;2023-03-01T08:38:58;31.60;;;17.50;;
45206;SDS011;30950;53.086;21.576;2023-03-01T08:41:26;36.97;;;18.75;;
45206;SDS011;30950;53.086;21.576;2023-03-01T08:43:54;32.55;;;17.30;;
45206;SDS011;30950;53.086;21.576;2023-03-01T08:46:29;31.48;;;16.23;;
45206;SDS011;30950;53.086;21.576;2023-03-01T08:49:04;29.60;;;16.05;;
45206;SDS011;30950;53.086;21.576;2023-03-01T08:51:35;31.30;;;16.80;;
45206;SDS011;30950;53.086;21.576;2023-03-01T08:54:06;27.60;;;15.60;;
45206;SDS011;30950;53.086;21.576;2023-03-01T08:56:37;29.05;;;16.27;;
45206;SDS011;30950;53.086;21.576;2023-03-01T08:59:06;27.35;;;14.90;;
45206;SDS011;30950;53.086;21.576;2023-03-01T09:01:34;29.05;;;15.95;;
45206;SDS011;30950;53.086;21.576;2023-03-01T09:04:01;28.58;;;16.42;;
45206;SDS011;30950;53.086;21.576;2023-03-01T09:06:32;28.52;;;16.15;;
45206;SDS011;30950;53.086;21.576;2023-03-01T09:09:00;27.55;;;16.52;;
45206;SDS011;30950;53.086;21.576;2023-03-01T09:11:28;29.17;;;16.58;;
45206;SDS011;30950;53.086;21.576;2023-03-01T09:13:56;35.63;;;16.73;;
45206;SDS011;30950;53.086;21.576;2023-03-01T09:16:24;30.40;;;16.85;;
45206;SDS011;30950;53.086;21.576;2023-03-01T09:18:52;28.92;;;16.45;;
45206;SDS011;30950;53.086;21.576;2023-03-01T09:21:21;27.40;;;15.48;;
45206;SDS011;30950;53.086;21.576;2023-03-01T09:24:06;32.25;;;16.73;;
45206;SDS011;30950;53.086;21.576;2023-03-01T09:26:38;30.17;;;17.13;;
45206;SDS011;30950;53.086;21.576;2023-03-01T09:29:05;28.25;;;17.25;;
45206;SDS011;30950;53.086;21.576;2023-03-01T09:31:33;29.45;;;16.40;;
45206;SDS011;30950;53.086;21.576;2023-03-01T09:34:00;30.40;;;17.55;;
45206;SDS011;30950;53.086;21.576;2023-03-01T09:36:27;29.42;;;15.25;;
45206;SDS011;30950;53.086;21.576;2023-03-01T09:38:57;31.63;;;16.63;;
45206;SDS011;30950;53.086;21.576;2023-03-01T09:46:51;35.33;;;18.48;;
45206;SDS011;30950;53.086;21.576;2023-03-01T09:49:27;31.75;;;18.20;;
45206;SDS011;30950;53.086;21.576;2023-03-01T09:54:31;31.58;;;17.63;;
45206;SDS011;30950;53.086;21.576;2023-03-01T09:59:56;34.88;;;19.90;;
45206;SDS011;30950;53.086;21.576;2023-03-01T10:08:53;32.67;;;18.70;;
45206;SDS011;30950;53.086;21.576;2023-03-01T10:11:12;29.90;;;17.80;;
45206;SDS011;30950;53.086;21.576;2023-03-01T10:14:12;31.00;;;17.63;;
45206;SDS011;30950;53.086;21.576;2023-03-01T10:16:50;30.90;;;17.95;;
45206;SDS011;30950;53.086;21.576;2023-03-01T10:19:30;30.20;;;17.95;;
45206;SDS011;30950;53.086;21.576;2023-03-01T10:22:11;25.15;;;17.02;;
45206;SDS011;30950;53.086;21.576;2023-03-01T10:24:42;40.38;;;21.30;;
45206;SDS011;30950;53.086;21.576;2023-03-01T10:27:22;34.00;;;17.42;;
45206;SDS011;30950;53.086;21.576;2023-03-01T10:32:59;30.08;;;17.88;;
45206;SDS011;30950;53.086;21.576;2023-03-01T10:35:29;59.53;;;19.38;;
45206;SDS011;30950;53.086;21.576;2023-03-01T10:38:08;36.15;;;18.23;;
45206;SDS011;30950;53.086;21.576;2023-03-01T10:40:49;29.83;;;17.10;;
45206;SDS011;30950;53.086;21.576;2023-03-01T10:43:17;30.00;;;17.77;;
45206;SDS011;30950;53.086;21.576;2023-03-01T10:45:45;32.53;;;18.77;;
45206;SDS011;30950;53.086;21.576;2023-03-01T10:50:46;31.55;;;19.05;;
45206;SDS011;30950;53.086;21.576;2023-03-01T10:53:33;27.08;;;15.77;;
45206;SDS011;30950;53.086;21.576;2023-03-01T10:56:08;29.33;;;17.33;;
45206;SDS011;30950;53.086;21.576;2023-03-01T11:01:31;30.90;;;18.42;;
45206;SDS011;30950;53.086;21.576;2023-03-01T11:06:34;40.10;;;19.75;;
45206;SDS011;30950;53.086;21.576;2023-03-01T11:09:17;34.25;;;19.85;;
45206;SDS011;30950;53.086;21.576;2023-03-01T11:11:54;34.80;;;19.73;;
45206;SDS011;30950;53.086;21.576;2023-03-01T11:14:23;32.58;;;17.40;;
45206;SDS011;30950;53.086;21.576;2023-03-01T11:17:12;33.05;;;17.52;;
45206;SDS011;30950;53.086;21.576;2023-03-01T11:19:59;29.88;;;18.33;;
45206;SDS011;30950;53.086;21.576;2023-03-01T11:22:28;31.17;;;19.23;;
45206;SDS011;30950;53.086;21.576;2023-03-01T11:24:58;33.58;;;18.23;;
45206;SDS011;30950;53.086;21.576;2023-03-01T11:27:43;36.45;;;18.85;;
45206;SDS011;30950;53.086;21.576;2023-03-01T11:30:19;28.88;;;17.80;;
45206;SDS011;30950;53.086;21.576;2023-03-01T11:32:53;30.38;;;18.75;;
45206;SDS011;30950;53.086;21.576;2023-03-01T11:35:32;33.28;;;19.40;;
45206;SDS011;30950;53.086;21.576;2023-03-01T11:38:16;29.98;;;17.98;;
45206;SDS011;30950;53.086;21.576;2023-03-01T11:51:41;31.95;;;18.65;;
45206;SDS011;30950;53.086;21.576;2023-03-01T11:56:57;36.60;;;22.30;;
45206;SDS011;30950;53.086;21.576;2023-03-01T12:10:29;41.13;;;21.98;;
45206;SDS011;30950;53.086;21.576;2023-03-01T12:13:14;31.48;;;17.70;;
45206;SDS011;30950;53.086;21.576;2023-03-01T12:30:26;24.80;;;16.73;;
45206;SDS011;30950;53.086;21.576;2023-03-01T12:36:08;26.90;;;16.13;;
45206;SDS011;30950;53.086;21.576;2023-03-01T12:50:47;27.65;;;15.35;;
45206;SDS011;30950;53.086;21.576;2023-03-01T12:53:26;28.30;;;16.00;;
45206;SDS011;30950;53.086;21.576;2023-03-01T12:55:59;26.40;;;15.85;;
45206;SDS011;30950;53.086;21.576;2023-03-01T12:58:33;30.45;;;17.30;;
45206;SDS011;30950;53.086;21.576;2023-03-01T13:01:24;27.15;;;15.25;;
45206;SDS011;30950;53.086;21.576;2023-03-01T13:06:43;28.13;;;14.95;;
45206;SDS011;30950;53.086;21.576;2023-03-01T13:12:03;26.08;;;16.83;;
45206;SDS011;30950;53.086;21.576;2023-03-01T13:14:51;23.65;;;14.63;;
45206;SDS011;30950;53.086;21.576;2023-03-01T13:17:30;24.50;;;14.70;;
45206;SDS011;30950;53.086;21.576;2023-03-01T13:19:59;26.42;;;14.90;;
45206;SDS011;30950;53.086;21.576;2023-03-01T13:22:29;23.92;;;14.98;;
45206;SDS011;30950;53.086;21.576;2023-03-01T13:25:10;27.20;;;15.75;;
45206;SDS011;30950;53.086;21.576;2023-03-01T13:27:40;24.98;;;16.00;;
45206;SDS011;30950;53.086;21.576;2023-03-01T13:35:49;27.90;;;15.95;;
45206;SDS011;30950;53.086;21.576;2023-03-01T13:41:04;23.93;;;15.27;;
45206;SDS011;30950;53.086;21.576;2023-03-01T13:43:38;25.60;;;15.27;;
45206;SDS011;30950;53.086;21.576;2023-03-01T13:46:12;28.15;;;17.20;;
45206;SDS011;30950;53.086;21.576;2023-03-01T13:48:49;26.83;;;17.02;;
45206;SDS011;30950;53.086;21.576;2023-03-01T13:51:21;29.48;;;16.92;;
45206;SDS011;30950;53.086;21.576;2023-03-01T13:53:52;27.50;;;15.82;;
45206;SDS011;30950;53.086;21.576;2023-03-01T14:01:33;27.08;;;16.02;;
45206;SDS011;30950;53.086;21.576;2023-03-01T14:04:03;24.55;;;15.43;;
45206;SDS011;30950;53.086;21.576;2023-03-01T14:06:45;25.63;;;15.02;;
45206;SDS011;30950;53.086;21.576;2023-03-01T14:09:20;29.83;;;17.27;;
45206;SDS011;30950;53.086;21.576;2023-03-01T14:11:57;31.95;;;17.92;;
45206;SDS011;30950;53.086;21.576;2023-03-01T14:20:44;22.60;;;14.82;;
45206;SDS011;30950;53.086;21.576;2023-03-01T14:23:19;38.22;;;18.88;;
45206;SDS011;30950;53.086;21.576;2023-03-01T14:25:48;29.00;;;17.35;;
45206;SDS011;30950;53.086;21.576;2023-03-01T14:28:24;27.85;;;18.30;;
45206;SDS011;30950;53.086;21.576;2023-03-01T14:30:55;27.48;;;15.23;;
45206;SDS011;30950;53.086;21.576;2023-03-01T14:36:03;28.75;;;17.95;;
45206;SDS011;30950;53.086;21.576;2023-03-01T14:43:38;25.50;;;15.90;;
45206;SDS011;30950;53.086;21.576;2023-03-01T14:46:26;25.73;;;16.20;;
45206;SDS011;30950;53.086;21.576;2023-03-01T14:48:58;24.10;;;15.55;;
45206;SDS011;30950;53.086;21.576;2023-03-01T14:51:36;25.53;;;15.77;;
45206;SDS011;30950;53.086;21.576;2023-03-01T14:56:54;26.70;;;15.93;;
45206;SDS011;30950;53.086;21.576;2023-03-01T14:59:25;25.85;;;16.05;;
45206;SDS011;30950;53.086;21.576;2023-03-01T15:01:54;24.45;;;16.45;;
45206;SDS011;30950;53.086;21.576;2023-03-01T15:04:23;28.60;;;17.30;;
45206;SDS011;30950;53.086;21.576;2023-03-01T15:06:53;26.65;;;16.30;;
45206;SDS011;30950;53.086;21.576;2023-03-01T15:09:22;26.42;;;14.60;;
45206;SDS011;30950;53.086;21.576;2023-03-01T15:11:50;25.08;;;16.02;;
45206;SDS011;30950;53.086;21.576;2023-03-01T15:14:27;25.98;;;15.95;;
45206;SDS011;30950;53.086;21.576;2023-03-01T15:17:33;24.50;;;14.95;;
45206;SDS011;30950;53.086;21.576;2023-03-01T15:20:03;26.83;;;15.43;;
45206;SDS011;30950;53.086;21.576;2023-03-01T15:22:33;25.77;;;15.57;;
45206;SDS011;30950;53.086;21.576;2023-03-01T15:25:02;27.90;;;15.95;;
45206;SDS011;30950;53.086;21.576;2023-03-01T15:27:29;33.55;;;17.33;;
45206;SDS011;30950;53.086;21.576;2023-03-01T15:29:58;24.67;;;15.90;;
45206;SDS011;30950;53.086;21.576;2023-03-01T15:32:34;32.10;;;18.08;;
45206;SDS011;30950;53.086;21.576;2023-03-01T15:41:02;36.13;;;21.27;;
45206;SDS011;30950;53.086;21.576;2023-03-01T15:46:05;38.88;;;21.13;;
45206;SDS011;30950;53.086;21.576;2023-03-01T15:48:38;32.30;;;18.08;;
45206;SDS011;30950;53.086;21.576;2023-03-01T15:51:19;28.00;;;16.83;;
45206;SDS011;30950;53.086;21.576;2023-03-01T15:53:54;27.97;;;16.63;;
45206;SDS011;30950;53.086;21.576;2023-03-01T15:56:22;25.80;;;15.48;;
45206;SDS011;30950;53.086;21.576;2023-03-01T15:58:49;30.38;;;17.42;;
45206;SDS011;30950;53.086;21.576;2023-03-01T16:01:17;33.85;;;17.85;;
45206;SDS011;30950;53.086;21.576;2023-03-01T16:03:44;30.00;;;17.80;;
45206;SDS011;30950;53.086;21.576;2023-03-01T16:06:12;29.42;;;17.17;;
45206;SDS011;30950;53.086;21.576;2023-03-01T16:08:40;37.90;;;20.65;;
45206;SDS011;30950;53.086;21.576;2023-03-01T16:11:10;41.40;;;19.42;;
45206;SDS011;30950;53.086;21.576;2023-03-01T16:13:44;38.42;;;20.48;;
45206;SDS011;30950;53.086;21.576;2023-03-01T16:16:13;48.70;;;23.30;;
45206;SDS011;30950;53.086;21.576;2023-03-01T16:18:43;48.10;;;24.42;;
45206;SDS011;30950;53.086;21.576;2023-03-01T16:21:22;50.05;;;24.15;;
45206;SDS011;30950;53.086;21.576;2023-03-01T16:23:51;46.20;;;23.08;;
45206;SDS011;30950;53.086;21.576;2023-03-01T16:26:19;43.63;;;23.90;;
45206;SDS011;30950;53.086;21.576;2023-03-01T16:28:47;74.82;;;36.90;;
45206;SDS011;30950;53.086;21.576;2023-03-01T16:31:16;53.95;;;31.10;;
45206;SDS011;30950;53.086;21.576;2023-03-01T16:33:45;63.72;;;30.52;;
45206;SDS011;30950;53.086;21.576;2023-03-01T16:36:17;58.85;;;30.50;;
45206;SDS011;30950;53.086;21.576;2023-03-01T16:38:46;60.60;;;30.10;;
45206;SDS011;30950;53.086;21.576;2023-03-01T16:41:17;58.33;;;28.48;;
45206;SDS011;30950;53.086;21.576;2023-03-01T16:43:47;58.28;;;29.80;;
45206;SDS011;30950;53.086;21.576;2023-03-01T16:46:16;63.38;;;30.92;;
45206;SDS011;30950;53.086;21.576;2023-03-01T16:48:45;63.20;;;32.00;;
45206;SDS011;30950;53.086;21.576;2023-03-01T16:51:13;79.63;;;36.45;;
45206;SDS011;30950;53.086;21.576;2023-03-01T16:53:40;110.10;;;42.63;;